Time;durP1;ratioP1;P1;durP2;ratioP2;P2;SDS_P1;SDS_P2;PMS_P1;PMS_P2;Temp;Humidity;BMP_temperature;BMP_pressure;BME280_temperature;BME280_humidity;BME280_pressure;Samples;Min_cycle;Max_cycle;Signal;HPM_P1;HPM_P2
2023/10/20 00:01:11;;;;;;;56.53;29.33;;;8.40;99.90;;;;;;5040040;28;20036;-68
2023/10/20 00:03:38;;;;;;;76.43;32.58;;;8.40;99.90;;;;;;5072837;28;20119;-68
2023/10/20 00:06:04;;;;;;;72.15;32.75;;;8.50;99.90;;;;;;5072862;28;20457;-68
2023/10/20 00:08:31;;;;;;;63.20;30.63;;;8.40;99.90;;;;;;5072722;28;20047;-68
2023/10/20 00:11:07;;;;;;;58.75;30.90;;;8.40;99.90;;;;;;5072952;28;20507;-68
2023/10/20 00:13:33;;;;;;;68.20;33.92;;;8.50;99.90;;;;;;5072689;28;20043;-68
2023/10/20 00:15:59;;;;;;;86.30;36.25;;;8.40;99.90;;;;;;5056012;28;20041;-68
2023/10/20 00:18:25;;;;;;;113.53;40.83;;;8.40;99.90;;;;;;5072601;28;20040;-68
2023/10/20 00:20:50;;;;;;;105.50;39.20;;;8.40;99.90;;;;;;5072449;28;20055;-68
2023/10/20 00:23:16;;;;;;;74.15;37.08;;;8.30;99.90;;;;;;5073831;28;20040;-68
2023/10/20 00:25:43;;;;;;;77.30;36.03;;;8.30;99.90;;;;;;5055825;28;20056;-69
2023/10/20 00:28:09;;;;;;;71.18;32.38;;;8.30;99.90;;;;;;5055724;28;20041;-68
2023/10/20 00:30:39;;;;;;;68.68;34.35;;;8.40;99.90;;;;;;5072413;28;20067;-68
2023/10/20 00:33:05;;;;;;;64.95;31.08;;;8.40;99.90;;;;;;5055327;28;20071;-68
2023/10/20 00:35:31;;;;;;;76.25;34.50;;;8.40;99.90;;;;;;5072554;28;20102;-68
2023/10/20 00:37:58;;;;;;;106.60;39.30;;;8.40;99.90;;;;;;5072236;28;20036;-68
2023/10/20 00:40:24;;;;;;;74.32;32.08;;;8.40;99.90;;;;;;5072211;28;20115;-68
2023/10/20 00:42:49;;;;;;;112.50;38.75;;;8.30;99.90;;;;;;5072493;28;20517;-68
2023/10/20 00:45:15;;;;;;;68.85;32.08;;;8.30;99.90;;;;;;5055616;28;20175;-68
2023/10/20 00:47:43;;;;;;;121.85;40.63;;;8.30;99.90;;;;;;5072179;28;20488;-68
2023/10/20 00:50:11;;;;;;;89.55;36.08;;;8.30;99.90;;;;;;5055745;28;20435;-68
2023/10/20 00:52:38;;;;;;;136.73;44.33;;;8.30;99.90;;;;;;5055590;28;20037;-68
2023/10/20 00:55:08;;;;;;;139.85;45.50;;;8.20;99.90;;;;;;5055363;28;20041;-68
2023/10/20 00:57:35;;;;;;;129.18;42.25;;;8.20;99.90;;;;;;5072286;28;20044;-67
2023/10/20 01:00:03;;;;;;;144.25;45.72;;;8.30;99.90;;;;;;5071922;28;20048;-67
2023/10/20 01:02:30;;;;;;;99.90;39.83;;;8.30;99.90;;;;;;5071961;28;20072;-68
2023/10/20 01:04:57;;;;;;;95.07;35.88;;;8.30;99.90;;;;;;5071936;28;20040;-68
2023/10/20 01:07:24;;;;;;;84.18;33.95;;;8.20;99.90;;;;;;5055255;28;20044;-67
2023/10/20 01:09:50;;;;;;;100.10;38.47;;;8.30;99.90;;;;;;5072055;28;20392;-68
2023/10/20 01:12:16;;;;;;;97.28;36.25;;;8.30;99.90;;;;;;5071808;28;20162;-68
2023/10/20 01:14:42;;;;;;;105.95;38.60;;;8.30;99.90;;;;;;5071828;28;20489;-68
2023/10/20 01:17:09;;;;;;;100.05;36.55;;;8.20;99.90;;;;;;5072023;28;20083;-68
2023/10/20 01:19:37;;;;;;;77.50;32.03;;;8.20;99.90;;;;;;5072017;28;20048;-68
2023/10/20 01:22:03;;;;;;;78.28;35.83;;;8.30;99.90;;;;;;5072106;28;20562;-68
2023/10/20 01:24:29;;;;;;;107.97;39.28;;;8.30;99.90;;;;;;5071973;28;20044;-68
2023/10/20 01:26:55;;;;;;;99.90;39.83;;;8.30;99.90;;;;;;5038419;28;20048;-68
2023/10/20 01:29:21;;;;;;;99.57;39.75;;;8.30;99.90;;;;;;5055277;28;20070;-68
2023/10/20 01:31:47;;;;;;;66.75;34.03;;;8.30;99.90;;;;;;5071665;28;20042;-68
2023/10/20 01:34:13;;;;;;;66.43;33.35;;;8.30;99.90;;;;;;5071678;28;20044;-68
2023/10/20 01:36:39;;;;;;;85.32;38.42;;;8.30;99.90;;;;;;5071735;28;20403;-68
2023/10/20 01:39:05;;;;;;;85.75;38.38;;;8.30;99.90;;;;;;5071596;28;20044;-68
2023/10/20 01:41:31;;;;;;;80.53;36.80;;;8.20;99.90;;;;;;5071576;28;20045;-68
2023/10/20 01:43:56;;;;;;;51.90;25.45;;;8.20;99.90;;;;;;5071559;28;20123;-67
2023/10/20 01:46:23;;;;;;;128.90;43.03;;;8.20;99.90;;;;;;5075828;28;20044;-68
2023/10/20 01:48:49;;;;;;;80.88;39.15;;;8.30;99.90;;;;;;5075583;28;20067;-68
2023/10/20 01:51:15;;;;;;;71.05;33.60;;;8.20;99.90;;;;;;5075733;28;20059;-68
2023/10/20 01:53:41;;;;;;;113.07;41.40;;;8.20;99.90;;;;;;5075227;28;20120;-68
2023/10/20 01:56:07;;;;;;;96.85;40.47;;;8.20;99.90;;;;;;5075536;28;20059;-68
2023/10/20 01:58:33;;;;;;;75.72;37.47;;;8.20;99.90;;;;;;5058657;28;20055;-68
2023/10/20 02:00:58;;;;;;;91.03;35.55;;;8.20;99.90;;;;;;5075459;28;20041;-67
2023/10/20 02:03:24;;;;;;;97.10;38.25;;;8.20;99.90;;;;;;5058506;28;20051;-67
2023/10/20 02:05:50;;;;;;;92.18;41.17;;;8.20;99.90;;;;;;5076681;28;20047;-68
2023/10/20 02:08:16;;;;;;;76.80;35.95;;;8.20;99.90;;;;;;5058467;28;20131;-68
2023/10/20 02:10:45;;;;;;;73.10;34.13;;;8.20;99.90;;;;;;5075001;28;20124;-68
2023/10/20 02:13:11;;;;;;;112.75;43.75;;;8.20;99.90;;;;;;5074968;28;20037;-68
2023/10/20 02:15:36;;;;;;;68.93;34.63;;;8.20;99.90;;;;;;5074955;28;20544;-68
2023/10/20 02:18:02;;;;;;;83.38;38.58;;;8.20;99.90;;;;;;5058271;28;20040;-68
2023/10/20 02:20:28;;;;;;;88.28;39.45;;;8.20;99.90;;;;;;5041561;28;20044;-70
2023/10/20 02:22:54;;;;;;;69.68;36.15;;;8.20;99.90;;;;;;5074880;28;20515;-68
2023/10/20 02:25:20;;;;;;;85.78;39.55;;;8.20;99.90;;;;;;5074493;28;20044;-68
2023/10/20 02:27:47;;;;;;;60.83;28.88;;;8.10;99.90;;;;;;5074329;28;20053;-69
2023/10/20 02:30:14;;;;;;;70.15;36.10;;;8.20;99.90;;;;;;5058052;28;20048;-68
2023/10/20 02:32:41;;;;;;;69.10;34.75;;;8.20;99.90;;;;;;5058151;28;20048;-69
2023/10/20 02:35:11;;;;;;;71.47;34.22;;;8.20;99.90;;;;;;5074541;28;20385;-70
2023/10/20 02:37:36;;;;;;;63.88;34.53;;;8.20;99.90;;;;;;5058062;28;20127;-70
2023/10/20 02:40:04;;;;;;;49.53;26.55;;;8.20;99.90;;;;;;5074769;28;20123;-68
2023/10/20 02:42:31;;;;;;;54.42;23.70;;;8.20;99.90;;;;;;5074401;28;20075;-67
2023/10/20 02:44:57;;;;;;;82.57;36.20;;;8.20;99.90;;;;;;5074401;28;20051;-70
2023/10/20 02:47:23;;;;;;;65.35;33.75;;;8.20;99.90;;;;;;5074356;28;20041;-69
2023/10/20 02:49:55;;;;;;;67.68;34.90;;;8.20;99.90;;;;;;5074571;28;20124;-68
2023/10/20 02:52:22;;;;;;;65.32;34.08;;;8.10;99.90;;;;;;5074405;28;20044;-68
2023/10/20 02:54:53;;;;;;;58.28;29.45;;;8.20;99.90;;;;;;5074496;28;20475;-68
2023/10/20 02:57:20;;;;;;;67.93;34.88;;;8.20;99.90;;;;;;5073145;28;20041;-68
2023/10/20 02:59:47;;;;;;;55.38;31.38;;;8.20;99.90;;;;;;5074381;28;20040;-68
2023/10/20 03:02:15;;;;;;;71.72;33.47;;;8.20;99.90;;;;;;5057747;28;20040;-68
2023/10/20 03:04:40;;;;;;;60.15;33.17;;;8.20;99.90;;;;;;5074336;28;20400;-68
2023/10/20 03:07:06;;;;;;;53.42;30.27;;;8.20;99.90;;;;;;5074044;28;20047;-67
2023/10/20 03:09:32;;;;;;;50.90;28.60;;;8.20;99.90;;;;;;5041372;28;20040;-67
2023/10/20 03:11:58;;;;;;;68.28;33.35;;;8.20;99.90;;;;;;5074303;28;20067;-67
2023/10/20 03:14:24;;;;;;;55.53;31.15;;;8.10;99.90;;;;;;5057488;28;20036;-67
2023/10/20 03:16:49;;;;;;;52.20;29.27;;;8.10;99.90;;;;;;5073949;28;20051;-67
2023/10/20 03:19:15;;;;;;;58.28;30.55;;;8.20;99.90;;;;;;5073758;28;20400;-68
2023/10/20 03:21:41;;;;;;;61.47;33.90;;;8.10;99.90;;;;;;5073811;28;20107;-68
2023/10/20 03:24:07;;;;;;;65.70;31.77;;;8.10;99.90;;;;;;5073749;28;20500;-67
2023/10/20 03:26:32;;;;;;;77.35;35.67;;;8.10;99.90;;;;;;5073675;28;20084;-68
2023/10/20 03:28:58;;;;;;;53.75;29.15;;;8.10;99.90;;;;;;5073816;28;20133;-67
2023/10/20 03:31:24;;;;;;;60.13;32.17;;;8.10;99.90;;;;;;5056975;28;20515;-67
2023/10/20 03:33:50;;;;;;;47.70;24.85;;;8.10;99.90;;;;;;5073695;28;20106;-67
2023/10/20 03:36:16;;;;;;;76.07;34.38;;;8.10;99.90;;;;;;5056849;28;20040;-67
2023/10/20 03:38:42;;;;;;;60.20;31.25;;;8.10;99.90;;;;;;5073635;28;20143;-68
2023/10/20 03:41:09;;;;;;;75.15;34.42;;;8.10;99.90;;;;;;5073644;28;20080;-68
2023/10/20 03:43:36;;;;;;;57.63;32.50;;;8.10;99.90;;;;;;5073180;28;20052;-67
2023/10/20 03:46:03;;;;;;;53.63;29.25;;;8.10;99.90;;;;;;5073703;28;20048;-67
2023/10/20 03:48:29;;;;;;;48.05;25.35;;;8.10;99.90;;;;;;5073352;28;20378;-67
2023/10/20 03:50:56;;;;;;;41.90;23.52;;;8.10;99.90;;;;;;5056809;28;20052;-68
2023/10/20 03:53:22;;;;;;;38.80;19.63;;;8.10;99.90;;;;;;5073821;28;20040;-67
2023/10/20 03:56:04;;;;;;;67.57;32.70;;;8.20;99.90;;;;;;5056342;28;20080;-68
2023/10/20 03:58:30;;;;;;;;;;;8.10;99.90;;;;;;5073447;28;20052;-67
2023/10/20 04:00:57;;;;;;;52.08;24.52;;;8.00;99.90;;;;;;5056493;28;19916;-67
2023/10/20 04:03:26;;;;;;;42.05;21.83;;;8.00;99.90;;;;;;5073163;28;20070;-67
2023/10/20 04:05:52;;;;;;;56.97;30.40;;;8.10;99.90;;;;;;5073227;28;20087;-67
2023/10/20 04:08:19;;;;;;;55.05;29.00;;;8.10;99.90;;;;;;5073881;28;20109;-67
2023/10/20 04:10:45;;;;;;;52.15;28.92;;;8.10;99.90;;;;;;5056091;28;20060;-67
2023/10/20 04:13:12;;;;;;;44.33;25.95;;;8.10;99.90;;;;;;5073037;28;20047;-67
2023/10/20 04:15:39;;;;;;;44.92;23.70;;;8.10;99.90;;;;;;5072925;28;20558;-67
2023/10/20 04:18:05;;;;;;;48.70;26.98;;;8.10;99.90;;;;;;5056321;28;20044;-67
2023/10/20 04:20:41;;;;;;;39.20;19.52;;;8.10;99.90;;;;;;5056199;28;20040;-67
2023/10/20 04:23:08;;;;;;;50.05;27.98;;;8.10;99.90;;;;;;5072565;28;20070;-68
2023/10/20 04:25:39;;;;;;;52.88;29.80;;;8.10;99.90;;;;;;5072612;28;20117;-68
2023/10/20 04:59:59;;;;;;;48.95;28.48;;;8.10;99.90;;;;;;5072140;28;20480;-68
2023/10/20 05:02:39;;;;;;;40.08;22.92;;;8.00;99.90;;;;;;5056958;28;20044;-68
2023/10/20 05:05:20;;;;;;;47.30;26.90;;;8.00;99.90;;;;;;5072123;28;20055;-68
2023/10/20 05:07:50;;;;;;;42.53;26.10;;;8.00;99.90;;;;;;5072017;28;20576;-68
2023/10/20 05:10:16;;;;;;;32.53;17.75;;;8.00;99.90;;;;;;5072143;28;20086;-67
2023/10/20 05:12:41;;;;;;;42.60;25.52;;;8.00;99.90;;;;;;5071872;28;20059;-68
2023/10/20 05:15:10;;;;;;;34.80;22.30;;;8.00;99.90;;;;;;5071786;28;20041;-67
2023/10/20 05:17:36;;;;;;;42.95;26.67;;;8.00;99.90;;;;;;5055058;28;20044;-68
2023/10/20 05:20:05;;;;;;;35.78;21.67;;;8.00;99.90;;;;;;5071220;28;20048;-68
2023/10/20 05:22:31;;;;;;;39.45;23.70;;;8.00;99.90;;;;;;5071917;28;20045;-67
2023/10/20 05:24:57;;;;;;;41.47;26.05;;;8.00;99.90;;;;;;5071997;28;20040;-68
2023/10/20 05:27:24;;;;;;;19.08;10.00;;;7.90;99.90;;;;;;5071761;28;20056;-67
2023/10/20 05:29:50;;;;;;;39.65;25.83;;;8.00;99.90;;;;;;5071873;28;20037;-68
2023/10/20 05:32:17;;;;;;;36.75;21.50;;;8.00;99.90;;;;;;5071778;28;20131;-67
2023/10/20 05:34:43;;;;;;;36.13;24.10;;;7.90;99.90;;;;;;5071511;28;20040;-67
2023/10/20 05:37:09;;;;;;;34.25;20.77;;;8.00;99.90;;;;;;5055013;28;20044;-67
2023/10/20 05:39:35;;;;;;;36.13;23.02;;;7.90;99.90;;;;;;5071563;28;20048;-67
2023/10/20 05:42:04;;;;;;;31.13;18.60;;;7.90;99.90;;;;;;5054843;28;20049;-67
2023/10/20 05:44:33;;;;;;;32.70;21.23;;;7.90;99.90;;;;;;5071535;28;20059;-67
2023/10/20 05:46:59;;;;;;;34.05;20.92;;;8.00;99.90;;;;;;5071404;28;20041;-68
2023/10/20 05:49:26;;;;;;;35.67;20.50;;;7.90;99.90;;;;;;5071900;28;20044;-68
2023/10/20 05:51:52;;;;;;;21.95;13.02;;;7.90;99.90;;;;;;5071731;28;20412;-68
2023/10/20 05:54:19;;;;;;;36.80;22.83;;;8.00;99.90;;;;;;5038182;28;20036;-68
2023/10/20 05:56:44;;;;;;;32.88;21.73;;;8.00;99.90;;;;;;5071469;28;20059;-68
2023/10/20 05:59:10;;;;;;;30.23;20.15;;;7.90;99.90;;;;;;5054845;28;20045;-67
2023/10/20 06:01:36;;;;;;;35.30;22.73;;;7.90;99.90;;;;;;5071718;28;20362;-68
2023/10/20 06:04:03;;;;;;;30.77;19.02;;;7.90;99.90;;;;;;5071379;28;20047;-68
2023/10/20 06:06:32;;;;;;;31.02;20.58;;;7.90;99.90;;;;;;5071316;28;20095;-68
2023/10/20 06:08:58;;;;;;;34.33;21.35;;;7.80;99.90;;;;;;5071235;28;20048;-68
2023/10/20 06:11:23;;;;;;;27.17;16.48;;;7.90;99.90;;;;;;5054845;28;20044;-68
2023/10/20 06:13:49;;;;;;;31.77;19.67;;;7.90;99.90;;;;;;5071220;28;20059;-68
2023/10/20 06:16:15;;;;;;;25.13;16.15;;;7.90;99.90;;;;;;5071405;28;20486;-67
2023/10/20 06:18:42;;;;;;;35.60;21.67;;;7.90;99.90;;;;;;5021576;28;20606;-68
2023/10/20 06:21:16;;;;;;;30.60;18.63;;;7.80;99.90;;;;;;5071323;28;20083;-68
2023/10/20 06:23:43;;;;;;;31.25;18.73;;;7.80;99.90;;;;;;5054445;28;20044;-68
2023/10/20 06:26:09;;;;;;;28.02;17.40;;;7.90;99.90;;;;;;5071154;28;20127;-68
2023/10/20 06:28:35;;;;;;;25.23;17.23;;;7.90;99.90;;;;;;5070937;28;20138;-68
2023/10/20 06:31:14;;;;;;;23.60;14.85;;;7.80;99.90;;;;;;5054564;28;20099;-68
2023/10/20 06:33:43;;;;;;;26.48;16.10;;;7.90;99.90;;;;;;5043651;28;20072;-67
2023/10/20 06:36:12;;;;;;;28.58;17.27;;;7.90;99.90;;;;;;5074950;28;20119;-68
2023/10/20 06:41:06;;;;;;;20.83;12.80;;;7.90;99.90;;;;;;5074775;28;20045;-67
2023/10/20 06:43:32;;;;;;;20.52;13.77;;;7.90;99.90;;;;;;5074524;28;20044;-67
2023/10/20 06:46:00;;;;;;;21.13;14.15;;;7.90;99.90;;;;;;5074830;28;20381;-67
2023/10/20 06:48:26;;;;;;;23.38;14.18;;;7.90;99.90;;;;;;5074426;28;20071;-68
2023/10/20 06:50:52;;;;;;;20.92;12.70;;;7.90;99.90;;;;;;5074296;28;20037;-68
2023/10/20 06:53:18;;;;;;;28.13;17.30;;;7.90;99.90;;;;;;5074520;28;20028;-68
2023/10/20 06:55:48;;;;;;;21.20;13.38;;;7.90;99.90;;;;;;5074306;28;20045;-68
2023/10/20 06:58:18;;;;;;;19.23;13.38;;;7.90;99.90;;;;;;5057856;28;20040;-67
2023/10/20 07:00:45;;;;;;;17.20;10.82;;;7.90;99.90;;;;;;5074295;28;20048;-68
2023/10/20 07:03:11;;;;;;;22.50;14.20;;;8.00;99.90;;;;;;5074447;28;20063;-67
2023/10/20 07:05:39;;;;;;;24.85;15.55;;;7.90;99.90;;;;;;5074452;28;20567;-67
2023/10/20 07:08:05;;;;;;;18.17;11.55;;;7.90;99.90;;;;;;5074004;28;20080;-68
2023/10/20 07:10:38;;;;;;;21.90;13.50;;;7.90;99.90;;;;;;5073946;28;20118;-67
2023/10/20 07:13:06;;;;;;;20.20;13.00;;;8.00;99.90;;;;;;5031791;28;20044;-68
2023/10/20 07:15:36;;;;;;;19.25;11.60;;;8.00;99.90;;;;;;5074016;28;20041;-68
2023/10/20 07:18:05;;;;;;;22.10;14.30;;;8.00;99.90;;;;;;5074151;28;20116;-68
2023/10/20 07:20:33;;;;;;;25.38;15.60;;;8.00;99.90;;;;;;5074096;28;20126;-68
2023/10/20 07:22:59;;;;;;;23.02;14.65;;;8.00;99.90;;;;;;5057305;28;20170;-68
2023/10/20 07:25:26;;;;;;;20.75;13.35;;;8.00;99.90;;;;;;5073769;28;20047;-67
2023/10/20 07:27:53;;;;;;;15.52;10.05;;;8.00;99.90;;;;;;5056929;28;20481;-68
2023/10/20 07:30:19;;;;;;;20.52;14.18;;;8.00;99.90;;;;;;5057426;28;20052;-68
2023/10/20 07:32:46;;;;;;;17.83;11.90;;;8.00;99.90;;;;;;5057259;28;20044;-67
2023/10/20 07:35:12;;;;;;;18.55;10.77;;;8.00;99.90;;;;;;5073611;28;20123;-68
2023/10/20 07:37:38;;;;;;;16.08;9.07;;;8.00;99.90;;;;;;5073425;28;20047;-68
2023/10/20 07:40:06;;;;;;;15.82;8.95;;;8.00;99.90;;;;;;5056817;28;20049;-68
2023/10/20 07:42:32;;;;;;;17.75;11.43;;;8.00;99.90;;;;;;5072895;28;20040;-68
2023/10/20 07:45:00;;;;;;;19.05;11.48;;;8.00;99.90;;;;;;5056564;28;20512;-68
2023/10/20 07:47:27;;;;;;;19.52;12.27;;;7.90;99.90;;;;;;5073657;28;20513;-68
2023/10/20 07:49:53;;;;;;;18.65;11.18;;;7.90;99.90;;;;;;5073178;28;20112;-68
2023/10/20 07:52:19;;;;;;;17.92;11.52;;;7.90;99.90;;;;;;5056687;28;20032;-68
2023/10/20 07:54:45;;;;;;;14.18;9.38;;;7.90;99.90;;;;;;5056577;28;20041;-68
2023/10/20 07:57:13;;;;;;;16.70;10.10;;;8.00;99.90;;;;;;5056755;28;20044;-70
2023/10/20 07:59:38;;;;;;;14.88;8.93;;;8.00;99.90;;;;;;5073060;28;20052;-68
2023/10/20 08:02:07;;;;;;;14.25;9.80;;;8.00;99.90;;;;;;5073042;28;20045;-69
2023/10/20 08:04:32;;;;;;;13.02;8.48;;;7.90;99.90;;;;;;5040643;28;20040;-69
2023/10/20 08:06:59;;;;;;;12.80;8.05;;;8.00;99.90;;;;;;5056691;28;20044;-68
2023/10/20 08:09:27;;;;;;;11.50;6.47;;;8.00;99.90;;;;;;5056484;28;20400;-68
2023/10/20 08:11:54;;;;;;;13.18;7.55;;;8.00;99.90;;;;;;5072892;28;20072;-68
2023/10/20 08:14:22;;;;;;;11.95;7.03;;;8.00;99.90;;;;;;5072601;28;20044;-68
2023/10/20 08:16:49;;;;;;;11.27;7.35;;;7.90;99.90;;;;;;5056444;28;20036;-68
2023/10/20 08:19:15;;;;;;;12.10;7.50;;;8.00;99.90;;;;;;5056206;28;20123;-68
2023/10/20 08:21:42;;;;;;;12.02;7.53;;;8.00;99.90;;;;;;5055940;28;20044;-68
2023/10/20 08:24:08;;;;;;;11.10;6.45;;;8.00;99.90;;;;;;5056095;28;20042;-68
2023/10/20 08:26:34;;;;;;;15.75;8.95;;;7.90;99.90;;;;;;5073716;28;20076;-68
2023/10/20 08:28:59;;;;;;;9.52;5.75;;;7.90;99.90;;;;;;5055744;28;20053;-68
2023/10/20 08:31:26;;;;;;;9.43;5.53;;;8.00;99.90;;;;;;5072647;28;20097;-68
2023/10/20 08:33:52;;;;;;;10.90;5.55;;;7.90;99.90;;;;;;5072627;28;20036;-68
2023/10/20 08:36:21;;;;;;;16.73;9.10;;;7.90;99.90;;;;;;5072276;28;20036;-68
2023/10/20 08:38:52;;;;;;;7.45;4.38;;;7.90;99.90;;;;;;5072652;28;20131;-68
2023/10/20 08:41:22;;;;;;;7.15;4.75;;;7.90;99.90;;;;;;5072654;28;20044;-68
2023/10/20 08:43:49;;;;;;;8.75;5.70;;;7.90;99.90;;;;;;5072200;28;20048;-68
2023/10/20 08:46:16;;;;;;;7.68;5.18;;;7.90;99.90;;;;;;5072447;28;20036;-68
2023/10/20 08:48:44;;;;;;;8.15;4.80;;;7.90;99.90;;;;;;5072252;28;20048;-68
2023/10/20 08:51:11;;;;;;;8.48;5.30;;;8.00;99.90;;;;;;5072119;28;20072;-68
2023/10/20 08:53:37;;;;;;;6.38;4.25;;;8.00;99.90;;;;;;5071657;28;20041;-68
2023/10/20 08:56:05;;;;;;;10.02;7.80;;;8.00;99.90;;;;;;5055405;28;20472;-67
2023/10/20 08:58:31;;;;;;;8.68;5.38;;;7.90;99.90;;;;;;5072103;28;20123;-67
2023/10/20 09:00:57;;;;;;;8.95;5.55;;;7.90;99.90;;;;;;5071948;28;20102;-67
2023/10/20 09:03:27;;;;;;;6.90;4.00;;;7.90;99.90;;;;;;5072112;28;20119;-67
2023/10/20 09:06:05;;;;;;;6.32;4.05;;;7.90;99.90;;;;;;5072315;28;20378;-67
2023/10/20 09:08:32;;;;;;;5.47;3.55;;;7.80;99.90;;;;;;5071994;28;20044;-67
2023/10/20 09:10:58;;;;;;;6.88;4.10;;;7.80;99.90;;;;;;5071949;28;20078;-67
2023/10/20 09:13:34;;;;;;;6.78;3.78;;;7.80;99.90;;;;;;5072148;28;20033;-67
2023/10/20 09:16:07;;;;;;;5.57;2.65;;;7.80;99.90;;;;;;5072091;28;20503;-67
2023/10/20 09:18:43;;;;;;;7.35;4.90;;;7.90;99.90;;;;;;5055164;28;20064;-67
2023/10/20 09:21:11;;;;;;;7.88;4.60;;;7.80;99.90;;;;;;5071995;28;20440;-67
2023/10/20 09:23:36;;;;;;;6.68;4.22;;;7.80;99.90;;;;;;5055323;28;20040;-67
2023/10/20 09:26:02;;;;;;;7.10;4.47;;;7.80;99.90;;;;;;5072945;28;20043;-67
2023/10/20 09:28:29;;;;;;;6.43;4.43;;;7.90;99.90;;;;;;5071491;28;20052;-67
2023/10/20 09:30:55;;;;;;;6.05;3.28;;;7.80;99.90;;;;;;5071716;28;20044;-67
2023/10/20 09:33:23;;;;;;;6.63;3.83;;;7.80;99.90;;;;;;5073335;28;20103;-67
2023/10/20 09:35:51;;;;;;;6.63;4.00;;;7.80;99.90;;;;;;5071804;28;20044;-67
2023/10/20 09:38:23;;;;;;;6.45;3.53;;;7.80;99.90;;;;;;5071956;28;20049;-67
2023/10/20 09:41:12;;;;;;;6.97;3.70;;;7.70;99.90;;;;;;5071907;28;20051;-67
2023/10/20 09:43:48;;;;;;;5.50;3.28;;;7.70;99.90;;;;;;5071513;28;20079;-68
2023/10/20 09:46:26;;;;;;;9.70;7.43;;;7.70;99.90;;;;;;5071832;28;20535;-68
2023/10/20 09:48:55;;;;;;;4.22;2.20;;;7.60;99.90;;;;;;5071534;28;20405;-67
2023/10/20 09:51:21;;;;;;;5.57;3.53;;;7.70;99.90;;;;;;5054789;28;20053;-67
2023/10/20 09:53:48;;;;;;;4.38;2.10;;;7.70;99.90;;;;;;5055103;28;20040;-67
2023/10/20 09:56:15;;;;;;;4.43;2.33;;;7.70;99.90;;;;;;5071736;28;20041;-68
2023/10/20 09:58:41;;;;;;;4.53;2.65;;;7.70;99.90;;;;;;5071447;28;20048;-67
2023/10/20 10:01:07;;;;;;;4.82;2.25;;;7.60;99.90;;;;;;5071314;28;20489;-67
2023/10/20 10:03:40;;;;;;;4.57;2.10;;;7.60;99.90;;;;;;5071371;28;20123;-67
2023/10/20 10:06:25;;;;;;;4.15;2.00;;;7.60;99.90;;;;;;5057677;28;20389;-67
2023/10/20 10:08:53;;;;;;;4.50;2.28;;;7.60;99.90;;;;;;5058432;28;20045;-67
2023/10/20 10:11:20;;;;;;;4.18;2.00;;;7.60;99.90;;;;;;5075098;28;20110;-67
2023/10/20 10:13:53;;;;;;;4.00;1.88;;;7.60;99.90;;;;;;5075378;28;20527;-67
2023/10/20 10:16:20;;;;;;;3.70;1.50;;;7.70;99.90;;;;;;5075382;28;20032;-67
2023/10/20 10:18:46;;;;;;;3.92;2.00;;;7.70;99.90;;;;;;5058320;28;20044;-68
2023/10/20 10:21:29;;;;;;;3.50;1.70;;;7.60;99.90;;;;;;5074886;28;20056;-69
2023/10/20 10:24:07;;;;;;;4.38;1.60;;;7.50;99.90;;;;;;5074856;28;20132;-70
2023/10/20 10:26:33;;;;;;;3.83;1.65;;;7.60;99.90;;;;;;5058269;28;20048;-67
2023/10/20 10:28:59;;;;;;;2.80;1.33;;;7.60;99.90;;;;;;5074642;28;20405;-69
2023/10/20 10:31:35;;;;;;;4.45;1.60;;;7.60;99.90;;;;;;5074743;28;20052;-68
2023/10/20 10:34:04;;;;;;;3.88;1.50;;;7.60;99.90;;;;;;5058097;28;20036;-68
2023/10/20 10:36:47;;;;;;;2.50;1.10;;;7.50;99.90;;;;;;5074589;28;20036;-67
2023/10/20 10:39:29;;;;;;;2.63;1.20;;;7.60;99.90;;;;;;5076250;28;20459;-69
2023/10/20 10:42:02;;;;;;;3.65;1.20;;;7.50;99.90;;;;;;5074616;28;20055;-68
2023/10/20 10:44:34;;;;;;;2.25;1.10;;;7.60;99.90;;;;;;5074667;28;20514;-69
2023/10/20 10:47:00;;;;;;;2.60;1.17;;;7.50;99.90;;;;;;5075719;28;20036;-67
2023/10/20 10:49:26;;;;;;;3.20;1.40;;;7.50;99.90;;;;;;5074629;28;20036;-67
2023/10/20 10:51:52;;;;;;;4.45;1.50;;;7.60;99.90;;;;;;5058071;28;20036;-67
2023/10/20 10:54:18;;;;;;;3.72;1.77;;;7.60;99.90;;;;;;5074539;28;20129;-68
2023/10/20 10:56:45;;;;;;;4.10;1.77;;;7.50;99.90;;;;;;5074468;28;20042;-68
2023/10/20 10:59:11;;;;;;;3.97;2.00;;;7.50;99.90;;;;;;5074481;28;20048;-68
2023/10/20 11:01:39;;;;;;;4.13;1.67;;;7.60;99.90;;;;;;5057591;28;20036;-68
2023/10/20 11:04:08;;;;;;;3.28;1.67;;;7.50;99.90;;;;;;5074228;28;20217;-68
2023/10/20 11:06:37;;;;;;;3.33;1.60;;;7.50;99.90;;;;;;5074169;28;20040;-67
2023/10/20 11:09:13;;;;;;;3.42;1.60;;;7.60;99.90;;;;;;5057826;28;20079;-67
2023/10/20 11:11:45;;;;;;;2.42;1.05;;;7.50;99.90;;;;;;5073963;28;20044;-67
2023/10/20 11:14:12;;;;;;;2.85;1.33;;;7.50;99.90;;;;;;5057359;28;20052;-68
2023/10/20 11:16:38;;;;;;;3.65;1.60;;;7.50;99.90;;;;;;5073653;28;20435;-67
2023/10/20 11:19:04;;;;;;;3.78;1.00;;;7.50;99.90;;;;;;5073641;28;20048;-67
2023/10/20 11:21:43;;;;;;;2.88;1.33;;;7.50;99.90;;;;;;5073900;28;20048;-67
2023/10/20 11:24:09;;;;;;;2.97;1.40;;;7.60;99.90;;;;;;5057076;28;20048;-67
2023/10/20 11:26:35;;;;;;;3.20;1.50;;;7.50;99.90;;;;;;5057385;28;20040;-67
2023/10/20 11:29:07;;;;;;;3.10;1.30;;;7.50;99.90;;;;;;5073565;28;20091;-66
2023/10/20 11:31:35;;;;;;;4.00;1.13;;;7.50;99.90;;;;;;5073712;28;20398;-67
2023/10/20 11:34:01;;;;;;;2.92;1.20;;;7.50;99.90;;;;;;5073735;28;20037;-67
2023/10/20 11:36:26;;;;;;;2.90;1.30;;;7.50;99.90;;;;;;5073885;28;20040;-67
2023/10/20 11:38:52;;;;;;;2.97;1.40;;;7.40;99.90;;;;;;5057356;28;20047;-66
2023/10/20 11:41:18;;;;;;;3.42;1.38;;;7.40;99.90;;;;;;5073508;28;20045;-67
2023/10/20 11:43:44;;;;;;;2.65;1.15;;;7.50;99.90;;;;;;5073758;28;20063;-67
2023/10/20 11:46:11;;;;;;;2.80;1.20;;;7.40;99.90;;;;;;5073741;28;20344;-66
2023/10/20 11:48:37;;;;;;;3.08;1.30;;;7.50;99.90;;;;;;5073428;28;20053;-67
2023/10/20 11:51:02;;;;;;;2.67;1.25;;;7.40;99.90;;;;;;5073617;28;20135;-66
2023/10/20 11:53:28;;;;;;;3.80;1.50;;;7.50;99.90;;;;;;5026773;28;20037;-66
2023/10/20 11:55:54;;;;;;;2.30;1.15;;;7.50;99.90;;;;;;5062307;28;20129;-67
2023/10/20 11:58:20;;;;;;;3.58;1.50;;;7.40;99.90;;;;;;5073335;28;20051;-67
2023/10/20 12:00:46;;;;;;;2.83;1.38;;;7.50;99.90;;;;;;5072994;28;20045;-66
2023/10/20 12:03:12;;;;;;;5.93;2.03;;;7.50;99.90;;;;;;5073345;28;20040;-66
2023/10/20 12:05:37;;;;;;;3.67;1.73;;;7.40;99.90;;;;;;5073291;28;20503;-67
2023/10/20 12:08:06;;;;;;;3.05;1.40;;;7.40;99.90;;;;;;5056602;28;20044;-67
2023/10/20 12:10:32;;;;;;;2.92;1.30;;;7.40;99.90;;;;;;5073143;28;20115;-67
2023/10/20 12:13:04;;;;;;;2.30;1.10;;;7.40;99.90;;;;;;5073135;28;20150;-66
2023/10/20 12:15:30;;;;;;;2.30;1.00;;;7.40;99.90;;;;;;5073084;28;20079;-67
2023/10/20 12:17:57;;;;;;;2.05;1.00;;;7.40;99.90;;;;;;5072682;28;20079;-67
2023/10/20 12:20:24;;;;;;;3.20;1.25;;;7.40;99.90;;;;;;5056289;28;20391;-67
2023/10/20 12:22:54;;;;;;;2.88;1.17;;;7.30;99.90;;;;;;5064365;28;20049;-67
2023/10/20 12:25:21;;;;;;;2.45;0.90;;;7.30;99.90;;;;;;5035615;28;20500;-66
2023/10/20 12:27:47;;;;;;;2.20;1.00;;;7.40;99.90;;;;;;5035757;28;20049;-67
2023/10/20 12:30:13;;;;;;;1.38;0.65;;;7.30;99.90;;;;;;5052195;28;20124;-67
2023/10/20 12:32:39;;;;;;;4.03;1.75;;;7.40;99.90;;;;;;5052778;28;20476;-67
2023/10/20 12:35:05;;;;;;;2.97;1.10;;;7.30;99.90;;;;;;5052732;28;20029;-67
2023/10/20 12:37:32;;;;;;;1.35;0.80;;;7.40;99.90;;;;;;5052522;28;20425;-67
2023/10/20 12:39:59;;;;;;;2.60;1.20;;;7.40;99.90;;;;;;5036110;28;20037;-68
2023/10/20 12:42:27;;;;;;;2.63;1.08;;;7.40;99.90;;;;;;5069088;28;20499;-67
2023/10/20 12:44:52;;;;;;;2.20;0.90;;;7.40;99.90;;;;;;5035868;28;20033;-67
2023/10/20 12:47:19;;;;;;;2.63;0.90;;;7.50;99.90;;;;;;5052529;28;20447;-67
2023/10/20 12:49:45;;;;;;;2.03;0.90;;;7.40;99.90;;;;;;5052554;28;20199;-68
2023/10/20 12:52:12;;;;;;;3.10;0.82;;;7.40;99.90;;;;;;5035736;28;20071;-68
2023/10/20 12:54:41;;;;;;;2.50;1.00;;;7.40;99.90;;;;;;5052283;28;20049;-68
2023/10/20 12:57:07;;;;;;;0.70;0.60;;;7.40;99.90;;;;;;5052344;28;20094;-69
2023/10/20 12:59:33;;;;;;;1.98;0.80;;;7.40;99.90;;;;;;5051828;28;20405;-68
2023/10/20 13:01:59;;;;;;;2.30;0.95;;;7.40;99.90;;;;;;5034770;28;20039;-68
2023/10/20 13:04:25;;;;;;;1.60;0.80;;;7.40;99.90;;;;;;5052035;28;20051;-68
2023/10/20 13:06:51;;;;;;;3.83;0.80;;;7.30;99.90;;;;;;5035313;28;20045;-68
2023/10/20 13:09:17;;;;;;;3.75;1.00;;;7.40;99.90;;;;;;5051808;28;20424;-67
2023/10/20 13:11:43;;;;;;;2.83;1.00;;;7.30;99.90;;;;;;5051828;28;20102;-67
2023/10/20 13:14:10;;;;;;;1.67;0.90;;;7.30;99.90;;;;;;5051952;28;20076;-67
2023/10/20 13:16:35;;;;;;;2.70;0.90;;;7.30;99.90;;;;;;5052076;28;20095;-67
2023/10/20 13:19:01;;;;;;;2.30;0.80;;;7.30;99.90;;;;;;5035572;28;20049;-67
2023/10/20 13:21:27;;;;;;;1.75;0.80;;;7.30;99.90;;;;;;5052034;28;20044;-67